sensor_id;sensor_type;location;lat;lon;timestamp;P1;durP1;ratioP1;P2;durP2;ratioP2
62554;SDS011;48610;52.144;8.624;2023-04-24T00:01:48;1.35;;;1.30;;
62554;SDS011;48610;52.144;8.624;2023-04-24T00:04:50;1.35;;;1.25;;
62554;SDS011;48610;52.144;8.624;2023-04-24T00:07:50;1.55;;;1.13;;
62554;SDS011;48610;52.144;8.624;2023-04-24T00:10:54;4.22;;;1.00;;
62554;SDS011;48610;52.144;8.624;2023-04-24T00:13:55;1.75;;;0.80;;
62554;SDS011;48610;52.144;8.624;2023-04-24T00:16:56;0.93;;;0.77;;
62554;SDS011;48610;52.144;8.624;2023-04-24T00:19:57;0.73;;;0.73;;
62554;SDS011;48610;52.144;8.624;2023-04-24T00:23:01;0.63;;;0.50;;
62554;SDS011;48610;52.144;8.624;2023-04-24T00:26:02;0.70;;;0.70;;
62554;SDS011;48610;52.144;8.624;2023-04-24T00:29:03;0.60;;;0.60;;
62554;SDS011;48610;52.144;8.624;2023-04-24T00:32:03;1.13;;;1.00;;
62554;SDS011;48610;52.144;8.624;2023-04-24T00:35:04;1.95;;;0.80;;
62554;SDS011;48610;52.144;8.624;2023-04-24T00:38:06;0.75;;;0.65;;
62554;SDS011;48610;52.144;8.624;2023-04-24T00:41:07;0.47;;;0.47;;
62554;SDS011;48610;52.144;8.624;2023-04-24T00:44:07;2.90;;;0.95;;
62554;SDS011;48610;52.144;8.624;2023-04-24T00:47:08;1.38;;;0.93;;
62554;SDS011;48610;52.144;8.624;2023-04-24T00:50:11;0.85;;;0.85;;
62554;SDS011;48610;52.144;8.624;2023-04-24T00:53:13;3.78;;;1.15;;
62554;SDS011;48610;52.144;8.624;2023-04-24T00:56:13;7.05;;;0.93;;
62554;SDS011;48610;52.144;8.624;2023-04-24T00:59:16;1.25;;;1.15;;
62554;SDS011;48610;52.144;8.624;2023-04-24T01:02:17;2.25;;;0.98;;
62554;SDS011;48610;52.144;8.624;2023-04-24T01:05:18;1.02;;;0.95;;
62554;SDS011;48610;52.144;8.624;2023-04-24T01:08:19;1.10;;;1.00;;
62554;SDS011;48610;52.144;8.624;2023-04-24T01:11:21;0.68;;;0.68;;
62554;SDS011;48610;52.144;8.624;2023-04-24T01:14:21;4.55;;;1.13;;
62554;SDS011;48610;52.144;8.624;2023-04-24T01:17:22;3.10;;;1.00;;
62554;SDS011;48610;52.144;8.624;2023-04-24T01:20:23;1.38;;;1.27;;
62554;SDS011;48610;52.144;8.624;2023-04-24T01:23:26;1.75;;;1.20;;
62554;SDS011;48610;52.144;8.624;2023-04-24T01:26:27;0.95;;;0.90;;
62554;SDS011;48610;52.144;8.624;2023-04-24T01:29:27;0.95;;;0.93;;
62554;SDS011;48610;52.144;8.624;2023-04-24T01:32:28;1.33;;;1.05;;
62554;SDS011;48610;52.144;8.624;2023-04-24T01:35:29;1.38;;;0.93;;
62554;SDS011;48610;52.144;8.624;2023-04-24T01:38:30;1.10;;;1.10;;
62554;SDS011;48610;52.144;8.624;2023-04-24T01:41:30;1.20;;;1.13;;
62554;SDS011;48610;52.144;8.624;2023-04-24T01:44:33;1.60;;;1.30;;
62554;SDS011;48610;52.144;8.624;2023-04-24T01:47:33;3.30;;;1.58;;
62554;SDS011;48610;52.144;8.624;2023-04-24T01:50:34;1.85;;;1.60;;
62554;SDS011;48610;52.144;8.624;2023-04-24T01:53:35;2.58;;;1.58;;
62554;SDS011;48610;52.144;8.624;2023-04-24T01:56:36;1.63;;;1.42;;
62554;SDS011;48610;52.144;8.624;2023-04-24T01:59:40;4.38;;;1.70;;
62554;SDS011;48610;52.144;8.624;2023-04-24T02:02:41;2.95;;;1.52;;
62554;SDS011;48610;52.144;8.624;2023-04-24T02:05:43;1.60;;;1.50;;
62554;SDS011;48610;52.144;8.624;2023-04-24T02:08:45;1.90;;;1.60;;
62554;SDS011;48610;52.144;8.624;2023-04-24T02:11:45;2.65;;;1.30;;
62554;SDS011;48610;52.144;8.624;2023-04-24T02:14:46;2.65;;;1.45;;
62554;SDS011;48610;52.144;8.624;2023-04-24T02:17:46;1.67;;;1.40;;
62554;SDS011;48610;52.144;8.624;2023-04-24T02:20:47;2.13;;;1.55;;
62554;SDS011;48610;52.144;8.624;2023-04-24T02:23:48;4.50;;;1.83;;
62554;SDS011;48610;52.144;8.624;2023-04-24T02:26:48;3.08;;;1.60;;
62554;SDS011;48610;52.144;8.624;2023-04-24T02:29:49;1.58;;;1.48;;
62554;SDS011;48610;52.144;8.624;2023-04-24T02:32:49;5.38;;;2.10;;
62554;SDS011;48610;52.144;8.624;2023-04-24T02:35:50;1.73;;;1.58;;
62554;SDS011;48610;52.144;8.624;2023-04-24T02:38:51;2.38;;;2.00;;
62554;SDS011;48610;52.144;8.624;2023-04-24T02:41:51;2.15;;;1.95;;
62554;SDS011;48610;52.144;8.624;2023-04-24T02:44:52;1.70;;;1.60;;
62554;SDS011;48610;52.144;8.624;2023-04-24T02:47:52;2.38;;;2.17;;
62554;SDS011;48610;52.144;8.624;2023-04-24T02:50:53;3.05;;;2.10;;
62554;SDS011;48610;52.144;8.624;2023-04-24T02:53:53;2.72;;;2.40;;
62554;SDS011;48610;52.144;8.624;2023-04-24T02:56:54;2.60;;;2.40;;
62554;SDS011;48610;52.144;8.624;2023-04-24T02:59:55;2.88;;;2.17;;
62554;SDS011;48610;52.144;8.624;2023-04-24T03:02:55;2.47;;;2.28;;
62554;SDS011;48610;52.144;8.624;2023-04-24T03:05:56;2.22;;;1.98;;
62554;SDS011;48610;52.144;8.624;2023-04-24T03:08:57;2.10;;;1.73;;
62554;SDS011;48610;52.144;8.624;2023-04-24T03:11:57;2.40;;;2.20;;
62554;SDS011;48610;52.144;8.624;2023-04-24T03:14:58;1.90;;;1.80;;
62554;SDS011;48610;52.144;8.624;2023-04-24T03:17:59;2.33;;;2.03;;
62554;SDS011;48610;52.144;8.624;2023-04-24T03:21:00;2.35;;;2.15;;
62554;SDS011;48610;52.144;8.624;2023-04-24T03:24:01;2.30;;;2.10;;
62554;SDS011;48610;52.144;8.624;2023-04-24T03:27:02;2.30;;;2.10;;
62554;SDS011;48610;52.144;8.624;2023-04-24T03:30:03;2.60;;;2.35;;
62554;SDS011;48610;52.144;8.624;2023-04-24T03:33:03;4.70;;;2.20;;
62554;SDS011;48610;52.144;8.624;2023-04-24T03:36:04;2.55;;;2.08;;
62554;SDS011;48610;52.144;8.624;2023-04-24T03:39:05;3.53;;;2.28;;
62554;SDS011;48610;52.144;8.624;2023-04-24T03:42:06;4.38;;;2.40;;
62554;SDS011;48610;52.144;8.624;2023-04-24T03:45:06;2.72;;;2.30;;
62554;SDS011;48610;52.144;8.624;2023-04-24T03:48:08;2.88;;;2.38;;
62554;SDS011;48610;52.144;8.624;2023-04-24T03:51:09;14.02;;;2.67;;
62554;SDS011;48610;52.144;8.624;2023-04-24T03:54:09;2.70;;;2.45;;
62554;SDS011;48610;52.144;8.624;2023-04-24T03:57:10;2.30;;;2.20;;
62554;SDS011;48610;52.144;8.624;2023-04-24T04:00:11;5.43;;;2.20;;
62554;SDS011;48610;52.144;8.624;2023-04-24T04:03:12;2.90;;;2.60;;
62554;SDS011;48610;52.144;8.624;2023-04-24T04:06:13;5.20;;;2.40;;
62554;SDS011;48610;52.144;8.624;2023-04-24T04:09:14;5.88;;;2.80;;
62554;SDS011;48610;52.144;8.624;2023-04-24T04:12:15;4.03;;;2.55;;
62554;SDS011;48610;52.144;8.624;2023-04-24T04:15:16;2.40;;;2.20;;
62554;SDS011;48610;52.144;8.624;2023-04-24T04:18:16;9.27;;;2.58;;
62554;SDS011;48610;52.144;8.624;2023-04-24T04:21:17;2.90;;;2.60;;
62554;SDS011;48610;52.144;8.624;2023-04-24T04:24:18;2.67;;;2.20;;
62554;SDS011;48610;52.144;8.624;2023-04-24T04:27:20;3.47;;;3.08;;
62554;SDS011;48610;52.144;8.624;2023-04-24T04:30:21;4.22;;;2.53;;
62554;SDS011;48610;52.144;8.624;2023-04-24T04:33:22;2.95;;;2.58;;
62554;SDS011;48610;52.144;8.624;2023-04-24T04:36:22;4.93;;;2.90;;
62554;SDS011;48610;52.144;8.624;2023-04-24T04:39:23;4.03;;;2.60;;
62554;SDS011;48610;52.144;8.624;2023-04-24T04:42:25;7.63;;;2.90;;
62554;SDS011;48610;52.144;8.624;2023-04-24T04:45:27;4.28;;;2.50;;
62554;SDS011;48610;52.144;8.624;2023-04-24T04:48:28;7.43;;;2.83;;
62554;SDS011;48610;52.144;8.624;2023-04-24T04:51:31;2.83;;;2.60;;
62554;SDS011;48610;52.144;8.624;2023-04-24T04:54:32;5.97;;;3.00;;
62554;SDS011;48610;52.144;8.624;2023-04-24T04:57:32;3.50;;;3.00;;
62554;SDS011;48610;52.144;8.624;2023-04-24T05:00:33;4.97;;;3.20;;
62554;SDS011;48610;52.144;8.624;2023-04-24T05:03:35;3.78;;;3.30;;
62554;SDS011;48610;52.144;8.624;2023-04-24T05:06:36;5.35;;;3.35;;
62554;SDS011;48610;52.144;8.624;2023-04-24T05:09:37;4.38;;;3.53;;
62554;SDS011;48610;52.144;8.624;2023-04-24T05:12:37;7.70;;;4.60;;
62554;SDS011;48610;52.144;8.624;2023-04-24T05:15:38;6.82;;;4.35;;
62554;SDS011;48610;52.144;8.624;2023-04-24T05:18:38;8.35;;;4.88;;
62554;SDS011;48610;52.144;8.624;2023-04-24T05:21:39;7.28;;;4.55;;
62554;SDS011;48610;52.144;8.624;2023-04-24T05:24:40;8.75;;;5.90;;
62554;SDS011;48610;52.144;8.624;2023-04-24T05:27:40;11.85;;;5.93;;
62554;SDS011;48610;52.144;8.624;2023-04-24T05:30:41;12.90;;;6.60;;
62554;SDS011;48610;52.144;8.624;2023-04-24T05:33:42;8.77;;;6.40;;
62554;SDS011;48610;52.144;8.624;2023-04-24T05:36:42;13.52;;;6.55;;
62554;SDS011;48610;52.144;8.624;2023-04-24T05:39:43;9.13;;;6.80;;
62554;SDS011;48610;52.144;8.624;2023-04-24T05:42:43;9.55;;;6.47;;
62554;SDS011;48610;52.144;8.624;2023-04-24T05:45:44;10.90;;;6.40;;
62554;SDS011;48610;52.144;8.624;2023-04-24T05:48:45;8.82;;;6.07;;
62554;SDS011;48610;52.144;8.624;2023-04-24T05:51:45;9.23;;;6.18;;
62554;SDS011;48610;52.144;8.624;2023-04-24T05:54:46;7.90;;;6.38;;
62554;SDS011;48610;52.144;8.624;2023-04-24T05:57:47;12.52;;;7.15;;
62554;SDS011;48610;52.144;8.624;2023-04-24T06:00:47;10.65;;;7.30;;
62554;SDS011;48610;52.144;8.624;2023-04-24T06:03:48;10.00;;;7.07;;
62554;SDS011;48610;52.144;8.624;2023-04-24T06:06:48;13.68;;;7.00;;
62554;SDS011;48610;52.144;8.624;2023-04-24T06:09:50;11.85;;;7.53;;
62554;SDS011;48610;52.144;8.624;2023-04-24T06:12:51;11.40;;;7.90;;
62554;SDS011;48610;52.144;8.624;2023-04-24T06:15:52;13.18;;;7.47;;
62554;SDS011;48610;52.144;8.624;2023-04-24T06:18:53;11.60;;;7.88;;
62554;SDS011;48610;52.144;8.624;2023-04-24T06:21:53;10.73;;;7.97;;
62554;SDS011;48610;52.144;8.624;2023-04-24T06:24:54;13.18;;;7.22;;
62554;SDS011;48610;52.144;8.624;2023-04-24T06:27:55;12.43;;;7.68;;
62554;SDS011;48610;52.144;8.624;2023-04-24T06:30:56;15.43;;;7.68;;
62554;SDS011;48610;52.144;8.624;2023-04-24T06:33:57;11.68;;;8.00;;
62554;SDS011;48610;52.144;8.624;2023-04-24T06:36:58;11.68;;;7.85;;
62554;SDS011;48610;52.144;8.624;2023-04-24T06:39:58;14.05;;;8.32;;
62554;SDS011;48610;52.144;8.624;2023-04-24T06:42:59;12.68;;;8.07;;
62554;SDS011;48610;52.144;8.624;2023-04-24T06:46:02;11.13;;;8.00;;
62554;SDS011;48610;52.144;8.624;2023-04-24T06:49:03;17.90;;;8.43;;
62554;SDS011;48610;52.144;8.624;2023-04-24T06:52:04;14.25;;;8.20;;
62554;SDS011;48610;52.144;8.624;2023-04-24T06:55:05;10.48;;;8.35;;
62554;SDS011;48610;52.144;8.624;2023-04-24T06:58:06;14.73;;;9.20;;
62554;SDS011;48610;52.144;8.624;2023-04-24T07:01:07;14.38;;;9.15;;
62554;SDS011;48610;52.144;8.624;2023-04-24T07:04:08;9.93;;;8.50;;
62554;SDS011;48610;52.144;8.624;2023-04-24T07:07:09;16.10;;;9.18;;
62554;SDS011;48610;52.144;8.624;2023-04-24T07:10:12;10.45;;;8.25;;
62554;SDS011;48610;52.144;8.624;2023-04-24T07:13:14;12.10;;;8.65;;
62554;SDS011;48610;52.144;8.624;2023-04-24T07:16:14;14.95;;;9.20;;
62554;SDS011;48610;52.144;8.624;2023-04-24T07:19:15;12.60;;;8.60;;
62554;SDS011;48610;52.144;8.624;2023-04-24T07:22:16;13.77;;;9.07;;
62554;SDS011;48610;52.144;8.624;2023-04-24T07:25:17;13.70;;;8.52;;
62554;SDS011;48610;52.144;8.624;2023-04-24T07:28:18;16.42;;;8.70;;
62554;SDS011;48610;52.144;8.624;2023-04-24T07:31:18;14.07;;;9.80;;
62554;SDS011;48610;52.144;8.624;2023-04-24T07:34:19;13.50;;;8.50;;
62554;SDS011;48610;52.144;8.624;2023-04-24T07:37:20;12.07;;;8.73;;
62554;SDS011;48610;52.144;8.624;2023-04-24T07:40:21;11.13;;;8.10;;
62554;SDS011;48610;52.144;8.624;2023-04-24T07:43:22;10.70;;;7.90;;
62554;SDS011;48610;52.144;8.624;2023-04-24T07:46:23;13.52;;;8.00;;
62554;SDS011;48610;52.144;8.624;2023-04-24T07:49:24;12.38;;;7.97;;
62554;SDS011;48610;52.144;8.624;2023-04-24T07:52:25;10.23;;;7.70;;
62554;SDS011;48610;52.144;8.624;2023-04-24T07:55:26;11.10;;;7.25;;
62554;SDS011;48610;52.144;8.624;2023-04-24T07:58:26;11.00;;;7.68;;
62554;SDS011;48610;52.144;8.624;2023-04-24T08:01:27;9.63;;;6.35;;
62554;SDS011;48610;52.144;8.624;2023-04-24T08:04:28;8.95;;;6.20;;
62554;SDS011;48610;52.144;8.624;2023-04-24T08:07:29;10.32;;;6.00;;
62554;SDS011;48610;52.144;8.624;2023-04-24T08:10:30;8.65;;;6.10;;
62554;SDS011;48610;52.144;8.624;2023-04-24T08:13:30;6.43;;;5.10;;
62554;SDS011;48610;52.144;8.624;2023-04-24T08:16:32;7.05;;;5.40;;
62554;SDS011;48610;52.144;8.624;2023-04-24T08:19:33;8.50;;;5.22;;
62554;SDS011;48610;52.144;8.624;2023-04-24T08:22:33;11.13;;;5.13;;
62554;SDS011;48610;52.144;8.624;2023-04-24T08:25:34;6.97;;;5.15;;
62554;SDS011;48610;52.144;8.624;2023-04-24T08:28:35;5.38;;;4.47;;
62554;SDS011;48610;52.144;8.624;2023-04-24T08:31:35;8.20;;;4.90;;
62554;SDS011;48610;52.144;8.624;2023-04-24T08:34:36;11.25;;;5.30;;
62554;SDS011;48610;52.144;8.624;2023-04-24T08:37:37;10.50;;;5.15;;
62554;SDS011;48610;52.144;8.624;2023-04-24T08:40:37;6.95;;;4.95;;
62554;SDS011;48610;52.144;8.624;2023-04-24T08:43:39;7.85;;;4.63;;
62554;SDS011;48610;52.144;8.624;2023-04-24T08:46:40;6.03;;;4.60;;
62554;SDS011;48610;52.144;8.624;2023-04-24T08:49:42;5.97;;;4.63;;
62554;SDS011;48610;52.144;8.624;2023-04-24T08:52:43;7.90;;;4.85;;
62554;SDS011;48610;52.144;8.624;2023-04-24T08:55:45;5.72;;;4.30;;
62554;SDS011;48610;52.144;8.624;2023-04-24T08:58:47;6.82;;;4.25;;
62554;SDS011;48610;52.144;8.624;2023-04-24T09:01:48;6.43;;;4.18;;
62554;SDS011;48610;52.144;8.624;2023-04-24T09:04:52;5.07;;;3.97;;
62554;SDS011;48610;52.144;8.624;2023-04-24T09:07:53;4.85;;;3.80;;
62554;SDS011;48610;52.144;8.624;2023-04-24T09:10:55;3.83;;;3.47;;
62554;SDS011;48610;52.144;8.624;2023-04-24T09:13:58;4.93;;;3.38;;
62554;SDS011;48610;52.144;8.624;2023-04-24T09:16:59;4.38;;;3.50;;
62554;SDS011;48610;52.144;8.624;2023-04-24T09:20:00;10.13;;;3.60;;
62554;SDS011;48610;52.144;8.624;2023-04-24T09:23:00;6.32;;;3.50;;
62554;SDS011;48610;52.144;8.624;2023-04-24T09:26:02;4.10;;;3.40;;
62554;SDS011;48610;52.144;8.624;2023-04-24T09:29:05;4.93;;;3.50;;
62554;SDS011;48610;52.144;8.624;2023-04-24T09:32:18;3.40;;;3.00;;
62554;SDS011;48610;52.144;8.624;2023-04-24T09:35:21;3.92;;;3.20;;
62554;SDS011;48610;52.144;8.624;2023-04-24T09:38:32;3.40;;;3.10;;
62554;SDS011;48610;52.144;8.624;2023-04-24T09:41:33;6.75;;;3.20;;
62554;SDS011;48610;52.144;8.624;2023-04-24T09:44:34;3.83;;;3.30;;
62554;SDS011;48610;52.144;8.624;2023-04-24T09:47:38;5.28;;;3.08;;
62554;SDS011;48610;52.144;8.624;2023-04-24T09:50:39;3.60;;;3.30;;
62554;SDS011;48610;52.144;8.624;2023-04-24T09:53:47;4.22;;;3.40;;
62554;SDS011;48610;52.144;8.624;2023-04-24T09:56:48;3.60;;;3.10;;
62554;SDS011;48610;52.144;8.624;2023-04-24T09:59:50;3.63;;;2.95;;
62554;SDS011;48610;52.144;8.624;2023-04-24T10:02:57;3.53;;;2.97;;
62554;SDS011;48610;52.144;8.624;2023-04-24T10:06:02;3.92;;;3.13;;
62554;SDS011;48610;52.144;8.624;2023-04-24T10:09:08;3.60;;;2.55;;
62554;SDS011;48610;52.144;8.624;2023-04-24T10:12:11;3.28;;;2.72;;
62554;SDS011;48610;52.144;8.624;2023-04-24T10:15:12;2.60;;;2.40;;
62554;SDS011;48610;52.144;8.624;2023-04-24T10:18:15;8.00;;;3.20;;
62554;SDS011;48610;52.144;8.624;2023-04-24T10:21:16;5.93;;;3.42;;
62554;SDS011;48610;52.144;8.624;2023-04-24T10:24:17;4.63;;;3.60;;
62554;SDS011;48610;52.144;8.624;2023-04-24T10:27:22;3.10;;;2.80;;
62554;SDS011;48610;52.144;8.624;2023-04-24T10:30:24;8.10;;;4.90;;
62554;SDS011;48610;52.144;8.624;2023-04-24T10:33:26;3.75;;;2.90;;
62554;SDS011;48610;52.144;8.624;2023-04-24T10:36:28;3.10;;;2.70;;
62554;SDS011;48610;52.144;8.624;2023-04-24T10:39:32;3.17;;;2.77;;
62554;SDS011;48610;52.144;8.624;2023-04-24T10:42:33;3.75;;;2.83;;
62554;SDS011;48610;52.144;8.624;2023-04-24T10:45:35;3.40;;;2.90;;
62554;SDS011;48610;52.144;8.624;2023-04-24T10:48:36;7.18;;;2.97;;
62554;SDS011;48610;52.144;8.624;2023-04-24T10:51:46;3.38;;;3.00;;
62554;SDS011;48610;52.144;8.624;2023-04-24T10:54:48;4.22;;;3.53;;
62554;SDS011;48610;52.144;8.624;2023-04-24T10:58:04;3.97;;;3.08;;
62554;SDS011;48610;52.144;8.624;2023-04-24T11:01:05;3.45;;;3.15;;
62554;SDS011;48610;52.144;8.624;2023-04-24T11:04:06;4.10;;;3.50;;
62554;SDS011;48610;52.144;8.624;2023-04-24T11:07:07;3.97;;;3.58;;
62554;SDS011;48610;52.144;8.624;2023-04-24T11:10:09;4.57;;;3.83;;
62554;SDS011;48610;52.144;8.624;2023-04-24T11:19:39;4.55;;;4.03;;
62554;SDS011;48610;52.144;8.624;2023-04-24T11:22:39;4.70;;;4.20;;
62554;SDS011;48610;52.144;8.624;2023-04-24T11:25:41;4.97;;;4.47;;
62554;SDS011;48610;52.144;8.624;2023-04-24T11:28:46;5.05;;;4.22;;
62554;SDS011;48610;52.144;8.624;2023-04-24T11:31:48;4.90;;;4.10;;
62554;SDS011;48610;52.144;8.624;2023-04-24T11:34:51;5.28;;;4.43;;
62554;SDS011;48610;52.144;8.624;2023-04-24T11:37:53;4.60;;;4.07;;
62554;SDS011;48610;52.144;8.624;2023-04-24T11:40:55;4.22;;;3.65;;
62554;SDS011;48610;52.144;8.624;2023-04-24T11:43:56;3.47;;;3.17;;
62554;SDS011;48610;52.144;8.624;2023-04-24T11:46:57;3.75;;;3.30;;
62554;SDS011;48610;52.144;8.624;2023-04-24T11:49:58;3.35;;;3.05;;
62554;SDS011;48610;52.144;8.624;2023-04-24T11:53:00;4.78;;;3.17;;
62554;SDS011;48610;52.144;8.624;2023-04-24T11:56:04;2.95;;;2.67;;
62554;SDS011;48610;52.144;8.624;2023-04-24T11:59:05;2.92;;;2.63;;
62554;SDS011;48610;52.144;8.624;2023-04-24T12:02:05;2.47;;;2.10;;
62554;SDS011;48610;52.144;8.624;2023-04-24T12:05:06;2.40;;;2.20;;
62554;SDS011;48610;52.144;8.624;2023-04-24T12:08:07;2.20;;;2.00;;
62554;SDS011;48610;52.144;8.624;2023-04-24T12:11:08;1.90;;;1.60;;
62554;SDS011;48610;52.144;8.624;2023-04-24T12:14:11;2.28;;;2.08;;
62554;SDS011;48610;52.144;8.624;2023-04-24T12:17:12;2.17;;;1.20;;
62554;SDS011;48610;52.144;8.624;2023-04-24T12:20:13;1.55;;;1.45;;
62554;SDS011;48610;52.144;8.624;2023-04-24T12:23:14;4.63;;;2.60;;
62554;SDS011;48610;52.144;8.624;2023-04-24T12:26:18;3.05;;;2.65;;
62554;SDS011;48610;52.144;8.624;2023-04-24T12:29:21;4.03;;;2.35;;
62554;SDS011;48610;52.144;8.624;2023-04-24T12:32:21;6.43;;;4.28;;
62554;SDS011;48610;52.144;8.624;2023-04-24T12:35:23;5.95;;;3.88;;
62554;SDS011;48610;52.144;8.624;2023-04-24T12:38:26;6.63;;;4.28;;
62554;SDS011;48610;52.144;8.624;2023-04-24T12:41:30;3.67;;;3.00;;
62554;SDS011;48610;52.144;8.624;2023-04-24T12:44:31;8.48;;;4.72;;
62554;SDS011;48610;52.144;8.624;2023-04-24T12:47:34;7.07;;;3.95;;
62554;SDS011;48610;52.144;8.624;2023-04-24T12:50:36;3.78;;;2.72;;
62554;SDS011;48610;52.144;8.624;2023-04-24T12:53:38;3.55;;;2.70;;
62554;SDS011;48610;52.144;8.624;2023-04-24T12:56:39;5.47;;;3.28;;
62554;SDS011;48610;52.144;8.624;2023-04-24T12:59:39;4.07;;;3.35;;
62554;SDS011;48610;52.144;8.624;2023-04-24T13:02:40;7.32;;;3.50;;
62554;SDS011;48610;52.144;8.624;2023-04-24T13:05:41;6.78;;;3.75;;
62554;SDS011;48610;52.144;8.624;2023-04-24T13:08:43;6.20;;;3.90;;
62554;SDS011;48610;52.144;8.624;2023-04-24T13:11:43;5.82;;;4.30;;
62554;SDS011;48610;52.144;8.624;2023-04-24T13:14:44;8.27;;;4.57;;
62554;SDS011;48610;52.144;8.624;2023-04-24T13:17:45;6.60;;;4.35;;
62554;SDS011;48610;52.144;8.624;2023-04-24T13:20:46;7.43;;;3.60;;
62554;SDS011;48610;52.144;8.624;2023-04-24T13:23:47;7.05;;;4.07;;
62554;SDS011;48610;52.144;8.624;2023-04-24T13:26:49;8.40;;;4.05;;
62554;SDS011;48610;52.144;8.624;2023-04-24T13:29:49;8.75;;;4.18;;
62554;SDS011;48610;52.144;8.624;2023-04-24T13:32:51;10.10;;;4.57;;
62554;SDS011;48610;52.144;8.624;2023-04-24T13:35:51;7.75;;;4.40;;
62554;SDS011;48610;52.144;8.624;2023-04-24T13:38:52;9.55;;;5.82;;
62554;SDS011;48610;52.144;8.624;2023-04-24T13:41:53;11.15;;;5.90;;
62554;SDS011;48610;52.144;8.624;2023-04-24T13:44:54;13.40;;;5.65;;
62554;SDS011;48610;52.144;8.624;2023-04-24T13:47:54;10.82;;;6.13;;
62554;SDS011;48610;52.144;8.624;2023-04-24T13:50:56;11.50;;;4.30;;
62554;SDS011;48610;52.144;8.624;2023-04-24T13:53:57;10.93;;;4.53;;
62554;SDS011;48610;52.144;8.624;2023-04-24T13:56:58;10.32;;;4.05;;
62554;SDS011;48610;52.144;8.624;2023-04-24T13:59:58;13.13;;;3.70;;
62554;SDS011;48610;52.144;8.624;2023-04-24T14:03:03;10.32;;;4.00;;
62554;SDS011;48610;52.144;8.624;2023-04-24T14:06:04;7.28;;;3.72;;
62554;SDS011;48610;52.144;8.624;2023-04-24T14:09:06;7.40;;;3.90;;
62554;SDS011;48610;52.144;8.624;2023-04-24T14:12:07;7.82;;;4.38;;
62554;SDS011;48610;52.144;8.624;2023-04-24T14:15:08;11.55;;;4.32;;
62554;SDS011;48610;52.144;8.624;2023-04-24T14:18:09;9.35;;;4.28;;
62554;SDS011;48610;52.144;8.624;2023-04-24T14:21:09;9.30;;;4.68;;
62554;SDS011;48610;52.144;8.624;2023-04-24T14:24:10;8.23;;;4.40;;
62554;SDS011;48610;52.144;8.624;2023-04-24T14:27:11;9.13;;;4.68;;
62554;SDS011;48610;52.144;8.624;2023-04-24T14:30:11;10.90;;;4.88;;
62554;SDS011;48610;52.144;8.624;2023-04-24T14:33:12;9.50;;;4.68;;
62554;SDS011;48610;52.144;8.624;2023-04-24T14:36:14;12.73;;;4.90;;
62554;SDS011;48610;52.144;8.624;2023-04-24T14:39:14;11.40;;;5.78;;
62554;SDS011;48610;52.144;8.624;2023-04-24T14:42:15;15.45;;;5.95;;
62554;SDS011;48610;52.144;8.624;2023-04-24T14:45:17;8.98;;;5.32;;
62554;SDS011;48610;52.144;8.624;2023-04-24T14:48:18;14.50;;;5.25;;
62554;SDS011;48610;52.144;8.624;2023-04-24T14:51:18;22.23;;;8.57;;
62554;SDS011;48610;52.144;8.624;2023-04-24T14:54:19;11.32;;;5.88;;
62554;SDS011;48610;52.144;8.624;2023-04-24T14:57:23;12.98;;;7.22;;
62554;SDS011;48610;52.144;8.624;2023-04-24T15:00:23;12.60;;;6.07;;
62554;SDS011;48610;52.144;8.624;2023-04-24T15:03:24;12.05;;;5.22;;
62554;SDS011;48610;52.144;8.624;2023-04-24T15:06:26;11.93;;;5.68;;
62554;SDS011;48610;52.144;8.624;2023-04-24T15:09:27;9.98;;;5.38;;
62554;SDS011;48610;52.144;8.624;2023-04-24T15:12:28;8.75;;;4.97;;
62554;SDS011;48610;52.144;8.624;2023-04-24T15:15:28;16.73;;;5.47;;
62554;SDS011;48610;52.144;8.624;2023-04-24T15:18:29;15.93;;;5.47;;
62554;SDS011;48610;52.144;8.624;2023-04-24T15:21:30;12.50;;;5.75;;
62554;SDS011;48610;52.144;8.624;2023-04-24T15:24:31;12.82;;;5.15;;
62554;SDS011;48610;52.144;8.624;2023-04-24T15:27:44;10.50;;;4.88;;
62554;SDS011;48610;52.144;8.624;2023-04-24T15:30:45;10.90;;;5.78;;
62554;SDS011;48610;52.144;8.624;2023-04-24T15:33:45;39.03;;;19.27;;
62554;SDS011;48610;52.144;8.624;2023-04-24T15:36:46;12.25;;;5.40;;
62554;SDS011;48610;52.144;8.624;2023-04-24T15:39:47;12.05;;;6.88;;
62554;SDS011;48610;52.144;8.624;2023-04-24T15:42:47;10.95;;;5.40;;
62554;SDS011;48610;52.144;8.624;2023-04-24T15:45:51;6.10;;;3.72;;
62554;SDS011;48610;52.144;8.624;2023-04-24T15:48:52;7.28;;;3.55;;
62554;SDS011;48610;52.144;8.624;2023-04-24T15:51:53;6.03;;;3.50;;
62554;SDS011;48610;52.144;8.624;2023-04-24T15:54:53;5.47;;;3.15;;
62554;SDS011;48610;52.144;8.624;2023-04-24T15:57:54;4.93;;;3.38;;
62554;SDS011;48610;52.144;8.624;2023-04-24T16:00:55;6.75;;;3.70;;
62554;SDS011;48610;52.144;8.624;2023-04-24T16:03:56;6.88;;;3.28;;
62554;SDS011;48610;52.144;8.624;2023-04-24T16:06:56;5.82;;;3.40;;
62554;SDS011;48610;52.144;8.624;2023-04-24T16:09:57;5.22;;;3.42;;
62554;SDS011;48610;52.144;8.624;2023-04-24T16:12:58;4.63;;;2.70;;
62554;SDS011;48610;52.144;8.624;2023-04-24T16:16:01;4.13;;;2.53;;
62554;SDS011;48610;52.144;8.624;2023-04-24T16:19:02;5.10;;;2.80;;
62554;SDS011;48610;52.144;8.624;2023-04-24T16:22:03;4.57;;;2.85;;
62554;SDS011;48610;52.144;8.624;2023-04-24T16:25:03;3.70;;;2.58;;
62554;SDS011;48610;52.144;8.624;2023-04-24T16:28:05;4.50;;;2.55;;
62554;SDS011;48610;52.144;8.624;2023-04-24T16:31:06;6.65;;;2.85;;
62554;SDS011;48610;52.144;8.624;2023-04-24T16:34:06;4.07;;;2.67;;
62554;SDS011;48610;52.144;8.624;2023-04-24T16:37:07;5.82;;;2.70;;
62554;SDS011;48610;52.144;8.624;2023-04-24T16:40:08;4.47;;;2.67;;
62554;SDS011;48610;52.144;8.624;2023-04-24T16:43:11;4.00;;;2.63;;
62554;SDS011;48610;52.144;8.624;2023-04-24T16:46:12;5.35;;;3.00;;
62554;SDS011;48610;52.144;8.624;2023-04-24T16:49:12;5.95;;;3.13;;
62554;SDS011;48610;52.144;8.624;2023-04-24T16:52:13;4.80;;;3.17;;
62554;SDS011;48610;52.144;8.624;2023-04-24T16:55:14;4.05;;;3.03;;
62554;SDS011;48610;52.144;8.624;2023-04-24T16:58:14;4.25;;;2.65;;
62554;SDS011;48610;52.144;8.624;2023-04-24T17:01:15;3.50;;;2.58;;
62554;SDS011;48610;52.144;8.624;2023-04-24T17:04:16;2.50;;;2.30;;
62554;SDS011;48610;52.144;8.624;2023-04-24T17:07:16;5.70;;;3.35;;
62554;SDS011;48610;52.144;8.624;2023-04-24T17:10:17;29.90;;;11.32;;
62554;SDS011;48610;52.144;8.624;2023-04-24T17:13:17;8.85;;;3.60;;
62554;SDS011;48610;52.144;8.624;2023-04-24T17:16:18;8.57;;;3.30;;
62554;SDS011;48610;52.144;8.624;2023-04-24T17:19:19;3.63;;;2.85;;
62554;SDS011;48610;52.144;8.624;2023-04-24T17:22:20;6.88;;;3.33;;
62554;SDS011;48610;52.144;8.624;2023-04-24T17:25:21;9.32;;;3.15;;
62554;SDS011;48610;52.144;8.624;2023-04-24T17:28:28;7.32;;;3.17;;
62554;SDS011;48610;52.144;8.624;2023-04-24T17:31:30;9.23;;;3.10;;
62554;SDS011;48610;52.144;8.624;2023-04-24T17:34:30;6.93;;;2.95;;
62554;SDS011;48610;52.144;8.624;2023-04-24T17:37:31;6.90;;;2.85;;
62554;SDS011;48610;52.144;8.624;2023-04-24T17:40:32;8.68;;;3.22;;
62554;SDS011;48610;52.144;8.624;2023-04-24T17:43:33;4.28;;;2.75;;
62554;SDS011;48610;52.144;8.624;2023-04-24T17:46:34;6.63;;;3.00;;
62554;SDS011;48610;52.144;8.624;2023-04-24T17:49:34;7.57;;;3.28;;
62554;SDS011;48610;52.144;8.624;2023-04-24T17:52:37;3.85;;;3.00;;
62554;SDS011;48610;52.144;8.624;2023-04-24T17:55:38;10.23;;;3.65;;
62554;SDS011;48610;52.144;8.624;2023-04-24T17:58:41;8.52;;;3.25;;
62554;SDS011;48610;52.144;8.624;2023-04-24T18:01:41;7.25;;;3.33;;
62554;SDS011;48610;52.144;8.624;2023-04-24T18:04:42;7.63;;;3.40;;
62554;SDS011;48610;52.144;8.624;2023-04-24T18:07:43;6.97;;;3.40;;
62554;SDS011;48610;52.144;8.624;2023-04-24T18:10:43;6.22;;;3.30;;
62554;SDS011;48610;52.144;8.624;2023-04-24T18:13:44;10.93;;;3.72;;
62554;SDS011;48610;52.144;8.624;2023-04-24T18:16:45;7.47;;;3.70;;